Terminal Aerodrome Forecast
Issued by NWS

Home | Current Version | Previous Version | Text Only | Print | Product List | Glossary On
Versions: 1 2 3 4 5 6 7 8 9 10 11 12 13
033
FTUS44 KEPZ 251720
TAFTCS
TAF
KTCS 251720Z 2518/2618 19013G20KT P6SM SKC
     FM252100 21019G28KT P6SM SKC
     FM260400 23008KT P6SM SKC
     FM261400 20011KT P6SM SKC=

USA.gov is the U.S. government's official web portal to all federal, state and local government web resources and services.